createdAt,value
2024-05-09T00:17:59.246Z,59.24
2024-05-09T00:37:59.243Z,59.25
2024-05-09T00:57:58.942Z,59.24
2024-05-09T01:17:59.233Z,59.24
2024-05-09T01:37:59.143Z,59.24
2024-05-09T01:57:59.038Z,59.23
2024-05-09T03:17:58.265Z,59.24
2024-05-09T03:37:58.797Z,59.23
2024-05-09T03:57:59.159Z,59.23
2024-05-09T04:17:59.088Z,59.23
2024-05-09T04:37:58.896Z,59.23
2024-05-09T05:17:58.988Z,59.22
2024-05-09T05:37:58.690Z,59.22
2024-05-09T05:57:58.619Z,59.22
2024-05-09T06:17:58.988Z,59.22
2024-05-09T08:57:58.515Z,59.21
2024-05-09T09:37:57.602Z,59.22
2024-05-09T09:57:57.613Z,59.21
2024-05-09T10:17:58.430Z,59.21
2024-05-09T10:37:58.312Z,59.21
2024-05-09T11:37:58.205Z,59.21
2024-05-09T11:57:58.309Z,59.21
2024-05-09T12:37:58.103Z,59.2
2024-05-09T12:57:58.220Z,59.2
2024-05-09T13:18:00.157Z,59.2
2024-05-09T13:57:57.981Z,59.2
2024-05-09T14:17:57.937Z,59.2
2024-05-09T14:57:57.934Z,59.19
2024-05-09T15:17:57.906Z,59.19
2024-05-09T15:37:57.777Z,59.19
2024-05-09T15:57:57.780Z,59.19
2024-05-09T16:17:57.742Z,59.19
2024-05-09T16:37:57.260Z,59.19
2024-05-09T16:57:57.756Z,59.19
2024-05-09T17:17:57.606Z,59.18
2024-05-09T17:37:57.559Z,59.18
2024-05-09T17:57:57.786Z,59.18
2024-05-09T18:17:57.664Z,59.18
2024-05-09T18:57:57.526Z,59.18
2024-05-09T19:17:57.490Z,59.18
2024-05-09T23:57:56.255Z,59.17
